Time;durP1;ratioP1;P1;durP2;ratioP2;P2;SDS_P1;SDS_P2;PMS_P1;PMS_P2;Temp;Humidity;BMP_temperature;BMP_pressure;BME280_temperature;BME280_humidity;BME280_pressure;Samples;Min_cycle;Max_cycle;Signal;HPM_P1;HPM_P2
2021/05/30 00:01:04;;;;;;;9.07;7.18;;;;;;;15.76;100.00;96894.16;4963458;28;20034;-63
2021/05/30 00:03:30;;;;;;;7.68;7.03;;;;;;;16.00;100.00;96929.53;4964411;28;20041;-61
2021/05/30 00:05:56;;;;;;;10.15;8.10;;;;;;;15.44;100.00;96929.84;4964367;28;20069;-61
2021/05/30 00:08:21;;;;;;;15.10;8.07;;;;;;;14.69;100.00;96866.25;4978849;28;20042;-62
2021/05/30 00:10:47;;;;;;;14.43;10.02;;;;;;;15.26;100.00;96933.84;4964154;28;20416;-61
2021/05/30 00:13:12;;;;;;;14.02;8.25;;;;;;;15.15;100.00;96950.63;4964074;28;20031;-64
2021/05/30 00:15:38;;;;;;;10.30;9.20;;;;;;;15.03;100.00;96920.38;4963451;28;20054;-61
2021/05/30 00:18:04;;;;;;;10.35;9.05;;;;;;;15.44;100.00;96946.59;4964022;28;20125;-63
2021/05/30 00:20:29;;;;;;;14.70;10.32;;;;;;;14.92;100.00;96909.22;4963222;28;20489;-61
2021/05/30 00:22:55;;;;;;;16.90;10.23;;;;;;;15.23;100.00;96918.72;4963646;28;20038;-61
2021/05/30 00:25:20;;;;;;;18.02;10.98;;;;;;;15.47;100.00;96945.78;4963320;28;20486;-60
2021/05/30 00:27:46;;;;;;;12.38;9.18;;;;;;;15.60;100.00;96935.72;4963392;28;20078;-62
2021/05/30 00:30:12;;;;;;;9.32;8.43;;;;;;;15.69;100.00;96940.88;4964800;28;20035;-60
2021/05/30 00:32:37;;;;;;;10.25;8.70;;;;;;;15.29;100.00;96878.00;4964794;28;20041;-60
2021/05/30 00:35:03;;;;;;;13.93;9.82;;;;;;;15.31;100.00;96897.16;4963344;28;20042;-60
2021/05/30 00:37:29;;;;;;;9.55;8.23;;;;;;;15.45;100.00;96941.78;4964864;28;20031;-62
2021/05/30 00:39:54;;;;;;;9.65;8.60;;;;;;;15.44;100.00;96921.47;4965077;28;20595;-60
2021/05/30 00:42:20;;;;;;;9.50;8.55;;;;;;;15.27;100.00;96888.78;4964943;28;20129;-60
2021/05/30 00:44:45;;;;;;;10.02;9.02;;;;;;;15.62;100.00;96958.47;4963542;28;20119;-62
2021/05/30 00:47:11;;;;;;;12.93;10.32;;;;;;;15.67;100.00;96932.13;4962775;28;20034;-61
2021/05/30 00:49:36;;;;;;;11.75;9.15;;;;;;;15.72;100.00;96935.28;4964990;28;20494;-62
2021/05/30 00:52:05;;;;;;;9.93;8.68;;;;;;;15.61;100.00;96934.53;4964296;28;20591;-61
2021/05/30 00:54:31;;;;;;;11.25;8.43;;;;;;;15.22;100.00;96864.09;4962893;28;20097;-62
2021/05/30 00:56:57;;;;;;;9.30;7.82;;;;;;;14.27;100.00;96716.66;4963000;28;20364;-61
2021/05/30 00:59:22;;;;;;;10.10;9.07;;;;;;;15.70;100.00;96937.69;4964262;28;20087;-61
2021/05/30 01:01:48;;;;;;;10.20;8.65;;;;;;;15.65;100.00;96924.16;4964330;28;20039;-60
2021/05/30 01:04:14;;;;;;;14.63;8.95;;;;;;;15.74;100.00;96932.91;4962989;28;20034;-61
2021/05/30 01:06:40;;;;;;;11.85;9.23;;;;;;;15.28;100.00;96842.94;4964167;28;20050;-61
2021/05/30 01:09:06;;;;;;;7.70;7.00;;;;;;;15.16;100.00;96835.00;4963036;28;20432;-61
2021/05/30 01:11:34;;;;;;;9.45;8.52;;;;;;;15.77;100.00;96932.09;4964038;28;20037;-61
2021/05/30 01:14:00;;;;;;;11.25;8.32;;;;;;;15.79;100.00;96929.66;4966483;28;20065;-61
2021/05/30 01:16:27;;;;;;;8.90;8.05;;;;;;;15.58;100.00;96896.28;4967460;28;20433;-61
2021/05/30 01:18:57;;;;;;;10.10;8.25;;;;;;;15.50;100.00;96905.88;4968139;28;20043;-61
2021/05/30 01:21:24;;;;;;;13.85;8.73;;;;;;;15.40;100.00;96878.78;4967736;28;20035;-62
2021/05/30 01:23:54;;;;;;;8.60;7.75;;;;;;;15.80;100.00;96934.06;4980492;28;20074;-61
2021/05/30 01:26:20;;;;;;;9.30;8.25;;;;;;;15.84;100.00;96932.03;4985441;28;20037;-61
2021/05/30 01:28:47;;;;;;;8.88;7.60;;;;;;;15.50;100.00;96877.16;4987113;28;20039;-61
2021/05/30 01:31:14;;;;;;;11.00;7.97;;;;;;;15.88;100.00;96938.41;4987414;28;20061;-60
2021/05/30 01:33:39;;;;;;;10.02;7.50;;;;;;;15.69;100.00;96924.94;4987368;28;20188;-61
2021/05/30 01:36:05;;;;;;;8.40;7.60;;;;;;;14.98;100.00;96796.03;4986951;28;20440;-60
2021/05/30 01:38:31;;;;;;;9.20;8.27;;;;;;;15.91;100.00;96937.59;4987200;28;20042;-60
2021/05/30 01:40:57;;;;;;;9.43;8.48;;;;;;;16.00;100.00;96939.91;4987237;28;20042;-60
2021/05/30 01:43:22;;;;;;;10.00;8.18;;;;;;;16.09;100.00;96932.69;4986799;28;20053;-61
2021/05/30 01:45:48;;;;;;;9.25;8.18;;;;;;;16.16;100.00;96927.06;4985140;28;20058;-62
2021/05/30 01:48:14;;;;;;;13.30;7.72;;;;;;;15.55;100.00;96823.69;4985601;28;20038;-61
2021/05/30 01:50:39;;;;;;;8.23;7.53;;;;;;;15.90;100.00;96891.28;4987073;28;20045;-60
2021/05/30 01:53:10;;;;;;;9.32;8.40;;;;;;;16.16;100.00;96927.06;4987624;28;20034;-61
2021/05/30 01:58:08;;;;;;;8.82;7.57;;;;;;;16.15;100.00;96941.44;4986710;28;20034;-60
2021/05/30 02:00:38;;;;;;;12.63;9.25;;;;;;;15.87;100.00;96894.91;4986760;28;20034;-60
2021/05/30 02:03:04;;;;;;;14.63;9.48;;;;;;;15.12;100.00;96779.25;4986694;28;20052;-60
2021/05/30 02:05:30;;;;;;;12.23;10.07;;;;;;;16.22;100.00;96936.59;4969580;28;20482;-60
2021/05/30 02:07:56;;;;;;;10.27;7.88;;;;;;;16.13;100.00;96910.31;4967457;28;20037;-61
2021/05/30 02:10:23;;;;;;;10.55;7.82;;;;;;;16.15;100.00;96908.72;4965457;28;20026;-60
2021/05/30 02:12:51;;;;;;;13.60;8.52;;;;;;;16.32;100.00;96935.72;4966965;28;20433;-61
2021/05/30 02:15:18;;;;;;;8.48;7.68;;;;;;;16.04;100.00;96880.03;4964987;28;20525;-61
2021/05/30 02:17:43;;;;;;;9.32;7.50;;;;;;;16.28;100.00;96923.75;4965770;28;20022;-60
2021/05/30 02:20:11;;;;;;;11.90;9.13;;;;;;;16.14;100.00;96921.06;4966411;28;20402;-61
2021/05/30 02:22:37;;;;;;;9.73;8.73;;;;;;;15.62;100.00;96841.19;4966908;28;20038;-61
2021/05/30 02:25:05;;;;;;;8.38;7.55;;;;;;;15.27;100.00;96796.69;4964937;28;20039;-60
2021/05/30 02:27:31;;;;;;;8.75;7.95;;;;;;;15.92;100.00;96911.22;4965529;28;20034;-61
2021/05/30 02:29:56;;;;;;;8.85;8.05;;;;;;;15.89;100.00;96917.63;4966736;28;20061;-61
2021/05/30 02:32:22;;;;;;;9.13;8.23;;;;;;;15.82;100.00;96892.53;4966447;28;20033;-61
2021/05/30 02:34:47;;;;;;;9.23;8.32;;;;;;;15.81;100.00;96904.91;4966404;28;20198;-63
2021/05/30 02:37:15;;;;;;;9.95;9.00;;;;;;;14.17;100.00;96699.91;4966376;28;20050;-60
2021/05/30 02:39:41;;;;;;;11.18;8.95;;;;;;;15.71;100.00;96922.50;4966705;28;20046;-61
2021/05/30 02:42:07;;;;;;;10.55;8.77;;;;;;;15.69;100.00;96913.78;4964812;28;20528;-61
2021/05/30 02:44:33;;;;;;;10.00;9.00;;;;;;;15.68;100.00;96928.13;4967079;28;21096;-60
2021/05/30 02:46:59;;;;;;;11.52;8.25;;;;;;;15.56;100.00;96915.41;4966190;28;20038;-60
2021/05/30 02:49:26;;;;;;;9.60;8.70;;;;;;;15.69;100.00;96944.50;4966293;28;20042;-61
2021/05/30 02:51:52;;;;;;;11.88;10.02;;;;;;;15.70;100.00;96937.69;4966462;28;20452;-61
2021/05/30 02:54:18;;;;;;;11.55;10.38;;;;;;;15.51;100.00;96920.63;4964702;28;20049;-62
2021/05/30 02:56:44;;;;;;;13.05;11.40;;;;;;;15.51;100.00;96940.97;4965841;28;20038;-60
2021/05/30 02:59:09;;;;;;;12.48;11.18;;;;;;;15.56;100.00;96937.75;4966626;28;20039;-62
2021/05/30 03:01:35;;;;;;;13.10;11.90;;;;;;;15.60;100.00;96937.75;4964493;28;20447;-63
2021/05/30 03:04:00;;;;;;;14.32;12.90;;;;;;;15.46;100.00;96938.59;4970593;28;20481;-61
2021/05/30 03:06:26;;;;;;;18.35;13.32;;;;;;;14.96;100.00;96864.59;4983479;28;20121;-61
2021/05/30 03:08:52;;;;;;;14.05;12.63;;;;;;;15.63;100.00;96943.31;4984085;28;20038;-64
2021/05/30 03:11:19;;;;;;;11.95;10.75;;;;;;;15.32;100.00;96893.19;4983387;28;20120;-66
2021/05/30 03:13:44;;;;;;;13.05;11.25;;;;;;;14.70;100.00;96801.72;4983590;28;20042;-61
2021/05/30 03:16:10;;;;;;;11.73;10.43;;;;;;;15.68;100.00;96928.91;4983318;28;20061;-62
2021/05/30 03:18:35;;;;;;;13.63;11.98;;;;;;;15.26;100.00;96867.66;4983980;28;20042;-61
2021/05/30 03:21:01;;;;;;;14.90;11.90;;;;;;;15.81;100.00;96930.06;4985265;28;20084;-63
2021/05/30 03:23:26;;;;;;;12.02;10.68;;;;;;;15.92;100.00;96936.38;4983771;28;20041;-62
2021/05/30 03:25:52;;;;;;;11.63;10.57;;;;;;;15.33;100.00;96827.78;4985132;28;20032;-61
2021/05/30 03:28:17;;;;;;;10.30;9.30;;;;;;;15.77;100.00;96898.56;4983482;28;20488;-64
2021/05/30 03:30:43;;;;;;;9.68;8.68;;;;;;;16.11;100.00;96935.88;4983222;28;20138;-62
2021/05/30 03:33:08;;;;;;;8.75;7.85;;;;;;;16.04;100.00;96913.56;4985318;28;20096;-61
2021/05/30 03:35:34;;;;;;;8.93;8.02;;;;;;;16.15;100.00;96919.88;4982985;28;20030;-62
2021/05/30 03:38:01;;;;;;;8.60;7.78;;;;;;;16.06;100.00;96916.72;4985038;28;20026;-61
2021/05/30 03:40:33;;;;;;;8.50;7.32;;;;;;;15.72;100.00;96884.22;4984709;28;20026;-60
2021/05/30 03:42:59;;;;;;;9.25;8.45;;;;;;;16.05;100.00;96909.56;4983218;28;20474;-60
2021/05/30 03:45:25;;;;;;;12.60;9.10;;;;;;;16.13;100.00;96905.53;4984488;28;20113;-62
2021/05/30 03:47:51;;;;;;;9.43;8.52;;;;;;;15.02;100.00;96751.38;4984865;28;20045;-61
2021/05/30 03:50:17;;;;;;;9.70;8.63;;;;;;;16.24;100.00;96911.81;4984885;28;20042;-63
2021/05/30 03:52:43;;;;;;;9.52;7.63;;;;;;;16.13;97.74;96916.69;4984479;28;20062;-61
2021/05/30 03:55:10;;;;;;;7.55;6.85;;;;;;;15.87;96.69;96875.34;4982593;28;20097;-62
2021/05/30 03:57:36;;;;;;;6.70;6.00;;;;;;;16.28;95.06;96929.34;4984625;28;20065;-63
2021/05/30 04:00:08;;;;;;;7.45;6.85;;;;;;;16.01;94.53;96880.84;4985086;28;20122;-61
2021/05/30 04:02:33;;;;;;;8.02;7.22;;;;;;;16.27;96.06;96899.81;4982729;28;20030;-62
2021/05/30 04:04:59;;;;;;;12.40;7.75;;;;;;;16.48;95.91;96924.84;4972707;28;20031;-61
2021/05/30 04:07:25;;;;;;;6.97;6.38;;;;;;;14.00;93.46;96505.81;4963522;28;20461;-61
2021/05/30 04:09:50;;;;;;;9.35;7.78;;;;;;;16.57;94.21;96891.63;4963306;28;20034;-61
2021/05/30 04:12:16;;;;;;;7.07;6.50;;;;;;;16.49;90.35;96834.16;4964704;28;20030;-61
2021/05/30 04:14:41;;;;;;;7.32;6.07;;;;;;;16.55;89.79;96807.34;4965058;28;20042;-62
2021/05/30 04:17:07;;;;;;;7.10;6.40;;;;;;;17.25;89.38;96886.91;4964691;28;20065;-61
2021/05/30 04:22:54;;;;;;;6.32;5.72;;;;;;;17.41;83.75;96861.13;4964941;28;20097;-62
2021/05/30 04:25:20;;;;;;;15.13;8.93;;;;;;;17.53;83.78;96863.41;4963011;28;20469;-61
2021/05/30 04:27:46;;;;;;;8.25;7.22;;;;;;;18.00;85.14;96898.78;4963323;28;20031;-61
2021/05/30 04:30:13;;;;;;;6.10;5.50;;;;;;;17.97;84.18;96882.81;4963039;28;20042;-64
2021/05/30 04:32:38;;;;;;;6.00;5.32;;;;;;;18.06;84.28;96897.09;4964427;28;20584;-61
2021/05/30 04:35:05;;;;;;;5.90;5.45;;;;;;;18.02;84.06;96888.72;4964904;28;20077;-62
2021/05/30 04:37:31;;;;;;;6.50;5.47;;;;;;;18.22;83.63;96905.66;4964553;28;20042;-62
2021/05/30 04:39:56;;;;;;;7.45;5.18;;;;;;;18.32;81.94;96903.91;4965108;28;20043;-63
2021/05/30 04:42:22;;;;;;;5.93;5.38;;;;;;;17.47;83.20;96795.06;4964098;28;20041;-61
2021/05/30 04:44:48;;;;;;;6.72;6.18;;;;;;;16.77;84.61;96692.44;4964326;28;20035;-62
2021/05/30 04:47:13;;;;;;;8.13;6.78;;;;;;;18.28;84.30;96898.34;4964764;28;20046;-61
2021/05/30 04:49:39;;;;;;;11.73;7.60;;;;;;;18.28;83.39;96898.34;4968938;28;20078;-62
2021/05/30 04:52:10;;;;;;;8.18;6.65;;;;;;;18.24;83.34;96908.03;4967241;28;20089;-63
2021/05/30 04:54:36;;;;;;;7.88;6.60;;;;;;;18.17;83.74;96911.75;4967213;28;20105;-61
2021/05/30 04:57:01;;;;;;;6.90;6.30;;;;;;;18.23;84.13;96917.66;4966741;28;20034;-61
2021/05/30 04:59:27;;;;;;;7.22;6.47;;;;;;;18.23;82.84;96918.47;4968785;28;20041;-61
2021/05/30 05:01:52;;;;;;;6.88;6.38;;;;;;;18.21;83.31;96920.88;4966271;28;20070;-61
2021/05/30 05:04:18;;;;;;;7.50;6.28;;;;;;;18.20;83.93;96915.69;4973209;28;20038;-61
2021/05/30 05:06:43;;;;;;;6.82;6.22;;;;;;;17.99;83.42;96897.19;4987842;28;20057;-61
2021/05/30 05:09:09;;;;;;;6.47;5.93;;;;;;;18.08;83.32;96905.88;4988255;28;20101;-60
2021/05/30 05:11:35;;;;;;;6.40;5.72;;;;;;;18.32;82.66;96918.72;4987944;28;20114;-61
2021/05/30 05:14:00;;;;;;;5.80;5.30;;;;;;;18.08;82.91;96883.44;4987233;28;20046;-61
2021/05/30 05:16:26;;;;;;;11.30;5.95;;;;;;;18.34;83.84;96912.69;4987039;28;20664;-62
2021/05/30 05:18:51;;;;;;;7.47;6.78;;;;;;;18.17;84.08;96920.16;4987533;28;20053;-61
2021/05/30 05:21:17;;;;;;;8.27;6.97;;;;;;;17.65;84.51;96848.84;4987173;28;20096;-61
2021/05/30 05:23:43;;;;;;;7.97;7.07;;;;;;;18.01;86.17;96912.38;4986481;28;20038;-61
2021/05/30 05:26:08;;;;;;;9.88;7.22;;;;;;;17.77;86.06;96840.66;4987130;28;20045;-62
2021/05/30 05:28:34;;;;;;;8.30;7.57;;;;;;;17.93;86.16;96837.22;4985769;28;20043;-61
2021/05/30 05:31:00;;;;;;;8.07;7.32;;;;;;;18.67;83.66;96917.41;4986990;28;20043;-62
2021/05/30 05:33:25;;;;;;;6.70;6.03;;;;;;;18.66;80.58;96907.38;4985545;28;20044;-61
2021/05/30 05:35:51;;;;;;;6.53;6.00;;;;;;;18.85;81.33;96927.09;4985256;28;20045;-61
2021/05/30 05:38:18;;;;;;;7.13;5.80;;;;;;;18.41;78.34;96836.88;4987360;28;20042;-63
2021/05/30 05:40:44;;;;;;;6.65;5.88;;;;;;;18.70;79.32;96875.22;4986791;28;20035;-61
2021/05/30 05:43:10;;;;;;;6.57;5.95;;;;;;;19.18;79.57;96917.69;4986850;28;20036;-61
2021/05/30 05:45:36;;;;;;;5.78;5.38;;;;;;;19.22;78.56;96924.00;4986532;28;20030;-63
2021/05/30 05:48:02;;;;;;;5.72;5.32;;;;;;;19.41;76.38;96903.63;4984958;28;20065;-60
2021/05/30 05:50:28;;;;;;;5.78;5.28;;;;;;;19.78;72.95;96910.09;4986550;28;20037;-60
2021/05/30 05:52:54;;;;;;;5.88;5.22;;;;;;;20.08;73.14;96918.25;4985222;28;20065;-64
2021/05/30 05:55:21;;;;;;;5.55;5.10;;;;;;;19.58;69.28;96818.16;4984666;28;20088;-62
2021/05/30 05:57:49;;;;;;;6.47;5.10;;;;;;;20.19;68.23;96883.09;4986797;28;20579;-61
2021/05/30 06:00:20;;;;;;;5.60;5.20;;;;;;;20.61;67.81;96909.44;4984434;28;20041;-60
2021/05/30 06:02:47;;;;;;;5.25;4.75;;;;;;;20.77;68.04;96909.44;4986402;28;20041;-60
2021/05/30 06:05:17;;;;;;;5.63;5.20;;;;;;;20.51;66.20;96859.81;4972916;28;20074;-62
2021/05/30 06:07:44;;;;;;;5.63;5.13;;;;;;;20.77;66.38;96915.06;4967813;28;20379;-61
2021/05/30 06:10:10;;;;;;;7.95;5.65;;;;;;;20.46;68.27;96882.84;4965412;28;20595;-61
2021/05/30 06:12:36;;;;;;;6.07;5.63;;;;;;;20.77;69.31;96923.50;4966637;28;20035;-61
2021/05/30 06:15:01;;;;;;;5.63;5.30;;;;;;;20.66;68.84;96918.13;4965299;28;20053;-59
2021/05/30 06:17:27;;;;;;;6.40;5.28;;;;;;;20.63;70.73;96926.66;4964858;28;20049;-62
2021/05/30 06:19:52;;;;;;;5.72;5.32;;;;;;;20.56;69.80;96915.56;4967077;28;20035;-62
2021/05/30 06:22:18;;;;;;;5.90;5.30;;;;;;;20.48;69.70;96914.16;4966821;28;20027;-61
2021/05/30 06:24:45;;;;;;;5.75;5.30;;;;;;;19.74;72.21;96912.19;4966341;28;20137;-63
2021/05/30 06:27:11;;;;;;;6.95;6.45;;;;;;;19.36;75.89;96906.91;4966754;28;20698;-59
2021/05/30 06:29:36;;;;;;;6.20;5.65;;;;;;;19.31;73.59;96842.84;4965176;28;20429;-61
2021/05/30 06:32:02;;;;;;;9.30;5.80;;;;;;;19.30;77.79;96911.44;4966138;28;20042;-60
2021/05/30 06:34:28;;;;;;;9.88;6.10;;;;;;;19.47;76.84;96921.53;4965278;28;20046;-61
2021/05/30 06:36:53;;;;;;;14.32;5.95;;;;;;;19.19;75.75;96919.25;4964979;28;20041;-61
2021/05/30 06:39:20;;;;;;;7.53;6.35;;;;;;;18.76;78.76;96929.66;4965044;28;20049;-60
2021/05/30 06:41:46;;;;;;;6.03;5.53;;;;;;;18.88;77.92;96925.44;4964514;28;20557;-62
2021/05/30 06:44:11;;;;;;;12.43;6.70;;;;;;;18.36;80.39;96921.47;4965112;28;20165;-60
2021/05/30 06:46:37;;;;;;;6.70;6.22;;;;;;;18.74;78.72;96906.84;4964032;28;20525;-60
2021/05/30 06:49:05;;;;;;;9.43;6.13;;;;;;;19.22;78.35;96924.00;4966372;28;20046;-61
2021/05/30 06:51:32;;;;;;;5.93;5.45;;;;;;;18.96;79.05;96924.91;4965590;28;20622;-61
2021/05/30 06:54:02;;;;;;;6.05;5.55;;;;;;;18.32;78.17;96859.03;4966406;28;20038;-61
2021/05/30 06:56:28;;;;;;;8.43;5.22;;;;;;;17.89;76.06;96791.66;4965955;28;20037;-61
2021/05/30 06:58:55;;;;;;;5.60;5.10;;;;;;;18.47;75.37;96860.41;4964693;28;20038;-60
2021/05/30 07:01:21;;;;;;;6.45;5.82;;;;;;;19.24;75.03;96927.19;4964258;28;20031;-61
2021/05/30 07:03:48;;;;;;;8.65;6.43;;;;;;;19.89;74.35;96922.69;4966246;28;20042;-60
2021/05/30 07:06:14;;;;;;;8.50;4.90;;;;;;;18.95;71.16;96839.09;4981665;28;20039;-60
2021/05/30 07:08:40;;;;;;;4.97;4.60;;;;;;;19.70;70.97;96926.31;4983745;28;20046;-60
2021/05/30 07:11:06;;;;;;;20.42;9.02;;;;;;;20.13;68.58;96926.19;4983737;28;20457;-61
2021/05/30 07:13:31;;;;;;;9.40;5.72;;;;;;;20.64;69.08;96922.63;4983844;28;20046;-61
2021/05/30 07:15:57;;;;;;;5.78;5.07;;;;;;;20.09;70.89;96881.25;4982874;28;20521;-60
2021/05/30 07:18:23;;;;;;;8.82;6.65;;;;;;;20.08;65.70;96878.88;4982217;28;20125;-62
2021/05/30 07:20:51;;;;;;;5.88;5.20;;;;;;;20.71;66.87;96917.59;4984837;28;20046;-62
2021/05/30 07:23:17;;;;;;;10.00;5.75;;;;;;;19.61;67.59;96849.44;4985131;28;20501;-61
2021/05/30 07:25:43;;;;;;;10.13;6.85;;;;;;;20.61;67.67;96926.31;4983524;28;20089;-60
2021/05/30 07:28:08;;;;;;;5.82;4.93;;;;;;;20.50;64.94;96898.41;4983815;28;20034;-61
2021/05/30 07:30:35;;;;;;;20.38;8.88;;;;;;;21.41;62.09;96926.25;4983158;28;20031;-60
2021/05/30 07:33:03;;;;;;;5.07;4.68;;;;;;;21.31;62.25;96898.38;4984524;28;20042;-63
2021/05/30 07:35:30;;;;;;;18.42;8.43;;;;;;;21.15;62.36;96892.78;4984608;28;20082;-63
2021/05/30 07:37:56;;;;;;;7.07;5.40;;;;;;;22.38;59.88;96927.44;4985348;28;20305;-60
2021/05/30 07:40:22;;;;;;;22.10;8.05;;;;;;;21.97;57.18;96893.63;4983428;28;20401;-60
2021/05/30 07:42:48;;;;;;;9.18;5.88;;;;;;;22.73;57.21;96913.47;4984970;28;20108;-60
2021/05/30 07:45:15;;;;;;;12.73;8.65;;;;;;;23.20;55.76;96884.00;4985217;28;20169;-61
2021/05/30 07:47:41;;;;;;;47.95;22.08;;;;;;;23.27;52.26;96869.63;4984863;28;20034;-62
2021/05/30 07:50:08;;;;;;;11.93;7.95;;;;;;;23.81;53.33;96914.50;4984822;28;20176;-60
2021/05/30 07:52:34;;;;;;;21.10;14.02;;;;;;;24.10;51.55;96900.13;4983396;28;20070;-61
2021/05/30 07:54:59;;;;;;;7.07;6.45;;;;;;;24.18;49.66;96916.38;4984831;28;20501;-61
2021/05/30 07:57:25;;;;;;;6.68;6.00;;;;;;;24.29;49.85;96908.25;4984430;28;20879;-62
2021/05/30 07:59:51;;;;;;;5.57;5.07;;;;;;;24.11;47.45;96865.69;4984812;28;20592;-61
2021/05/30 08:02:19;;;;;;;12.30;7.80;;;;;;;23.94;46.38;96889.78;4984027;28;20636;-60
2021/05/30 08:04:45;;;;;;;7.00;6.30;;;;;;;24.10;46.72;96908.59;4976248;28;20485;-61
2021/05/30 08:07:10;;;;;;;16.45;10.90;;;;;;;23.52;46.14;96834.81;4963025;28;20039;-62
2021/05/30 08:09:36;;;;;;;27.10;15.80;;;;;;;23.95;46.98;96902.66;4965267;28;20472;-61
2021/05/30 08:12:02;;;;;;;33.50;19.17;;;;;;;24.18;44.85;96907.88;4964784;28;20035;-63
2021/05/30 08:14:28;;;;;;;18.42;11.23;;;;;;;23.39;44.79;96904.75;4965098;28;20037;-63
2021/05/30 08:16:53;;;;;;;7.70;6.50;;;;;;;23.26;46.42;96844.63;4964564;28;20050;-60
2021/05/30 08:19:19;;;;;;;5.32;4.90;;;;;;;23.68;45.38;96877.00;4979408;28;20099;-61
2021/05/30 08:21:45;;;;;;;6.35;5.75;;;;;;;24.19;47.43;96911.47;4964505;28;20022;-61
2021/05/30 08:24:11;;;;;;;5.72;5.25;;;;;;;24.15;46.38;96894.66;4964900;28;20066;-60
2021/05/30 08:26:39;;;;;;;12.60;7.35;;;;;;;24.16;47.25;96901.88;4962620;28;20031;-59
2021/05/30 08:29:04;;;;;;;12.68;8.02;;;;;;;24.39;46.40;96898.53;4963131;28;20039;-59
2021/05/30 08:31:30;;;;;;;6.57;5.88;;;;;;;23.52;47.53;96911.94;4964445;28;20030;-61
2021/05/30 08:33:55;;;;;;;11.10;9.10;;;;;;;23.52;48.98;96908.31;4964737;28;20505;-60
2021/05/30 08:36:21;;;;;;;11.85;7.88;;;;;;;23.82;47.26;96910.44;4963001;28;20490;-60
2021/05/30 08:38:46;;;;;;;5.53;4.95;;;;;;;24.44;45.42;96906.44;4963660;28;20421;-62
2021/05/30 08:41:11;;;;;;;6.30;5.70;;;;;;;24.40;44.03;96891.63;4964457;28;20603;-60
2021/05/30 08:43:38;;;;;;;6.07;5.57;;;;;;;24.26;43.54;96906.34;4964443;28;20417;-60
2021/05/30 08:46:03;;;;;;;5.88;5.05;;;;;;;24.27;44.55;96921.28;4964108;28;20148;-59
2021/05/30 08:48:29;;;;;;;7.60;7.00;;;;;;;24.97;42.48;96905.09;4964667;28;20082;-62
2021/05/30 08:51:04;;;;;;;11.95;10.27;;;;;;;23.91;46.22;96887.88;4964488;28;20175;-61
2021/05/30 08:53:41;;;;;;;5.90;5.32;;;;;;;23.03;46.35;96856.34;4964386;28;20434;-62
2021/05/30 08:56:08;;;;;;;6.68;5.25;;;;;;;22.94;45.15;96926.88;4964741;28;20035;-61
2021/05/30 08:58:41;;;;;;;5.80;5.00;;;;;;;23.16;45.34;96874.03;4964410;28;20074;-62
2021/05/30 09:01:13;;;;;;;5.18;4.88;;;;;;;23.84;43.30;96857.00;4964116;28;20402;-60
2021/05/30 09:04:07;;;;;;;5.05;4.75;;;;;;;23.73;43.50;96913.19;4962571;28;20137;-62
2021/05/30 09:06:33;;;;;;;;;;;;;;;22.75;46.82;96910.97;4945681;28;20042;-62
2021/05/30 09:08:59;;;;;;;6.03;5.38;;;;;;;22.26;45.66;96914.13;4945343;28;19973;-62
2021/05/30 09:11:38;;;;;;;15.07;9.02;;;;;;;23.37;43.75;96913.69;4945344;29;20066;-60
2021/05/30 09:14:06;;;;;;;12.52;8.75;;;;;;;23.80;43.96;96912.94;4943620;28;20036;-61
2021/05/30 09:16:49;;;;;;;5.65;5.15;;;;;;;24.19;41.94;96906.63;4944500;28;20057;-61
2021/05/30 09:19:40;;;;;;;7.15;6.55;;;;;;;24.42;42.48;96914.59;4944968;28;20353;-62
2021/05/30 09:22:15;;;;;;;16.75;9.30;;;;;;;24.37;42.24;96914.41;4943196;29;20046;-62
2021/05/30 09:24:50;;;;;;;6.30;5.70;;;;;;;24.78;42.23;96911.97;4943613;28;20046;-61
2021/05/30 09:27:20;;;;;;;5.10;4.70;;;;;;;22.96;43.56;96913.88;4943306;28;20071;-61
2021/05/30 09:30:06;;;;;;;5.55;5.22;;;;;;;22.27;44.46;96875.41;4943786;28;20046;-61
2021/05/30 09:32:31;;;;;;;5.97;5.47;;;;;;;23.46;44.74;96924.28;4944878;29;20046;-63
2021/05/30 09:35:02;;;;;;;6.07;5.57;;;;;;;21.90;44.35;96597.72;4946497;28;20558;-62
2021/05/30 09:37:28;;;;;;;5.60;5.13;;;;;;;23.61;42.97;96900.72;4946848;28;20159;-60
2021/05/30 09:39:53;;;;;;;7.03;5.50;;;;;;;23.16;44.18;96903.09;4946960;28;20035;-61
2021/05/30 09:42:33;;;;;;;24.33;13.18;;;;;;;23.52;42.19;96897.78;4948144;28;20118;-61
2021/05/30 09:45:06;;;;;;;10.55;7.20;;;;;;;22.93;41.09;96798.16;4948789;28;20043;-63
2021/05/30 09:47:38;;;;;;;10.90;8.65;;;;;;;23.83;41.95;96901.50;4948237;28;20110;-61
2021/05/30 09:50:07;;;;;;;6.15;5.60;;;;;;;23.79;39.74;96897.19;4948389;28;20051;-62
2021/05/30 09:52:45;;;;;;;5.78;5.05;;;;;;;23.59;40.08;96893.91;4947696;28;20129;-61
2021/05/30 09:55:34;;;;;;;7.88;7.07;;;;;;;23.46;39.89;96893.19;4947801;28;20051;-64
2021/05/30 09:58:08;;;;;;;7.32;6.60;;;;;;;23.72;40.94;96894.66;4947777;28;20035;-61
2021/05/30 10:00:34;;;;;;;5.90;5.50;;;;;;;24.24;38.94;96879.75;4947671;28;20478;-61
2021/05/30 10:03:00;;;;;;;7.03;5.47;;;;;;;24.62;39.96;96883.84;4946689;28;20058;-61
2021/05/30 10:05:25;;;;;;;5.78;5.38;;;;;;;25.17;39.24;96882.75;4973221;28;20456;-61
2021/05/30 10:07:51;;;;;;;5.55;5.15;;;;;;;25.53;38.20;96884.06;4987354;28;20100;-61
2021/05/30 10:10:17;;;;;;;5.20;4.88;;;;;;;25.36;38.69;96891.31;4986615;28;20038;-60
2021/05/30 10:12:46;;;;;;;7.18;6.00;;;;;;;25.00;37.68;96824.78;4986615;28;20034;-62
2021/05/30 10:15:12;;;;;;;5.80;5.30;;;;;;;25.73;37.98;96873.03;4984214;28;20065;-63
2021/05/30 10:17:40;;;;;;;6.53;6.13;;;;;;;25.96;37.38;96878.03;4986054;28;20108;-60
2021/05/30 10:20:09;;;;;;;6.13;5.57;;;;;;;26.35;36.58;96879.88;4984899;28;20062;-59
2021/05/30 10:22:35;;;;;;;7.03;5.25;;;;;;;25.77;36.64;96772.25;4986714;28;20030;-60
2021/05/30 10:25:01;;;;;;;5.63;5.22;;;;;;;26.06;36.55;96842.72;4983811;28;20140;-59
2021/05/30 10:27:27;;;;;;;6.38;5.57;;;;;;;26.41;36.42;96863.75;4985392;28;20105;-59
2021/05/30 10:30:11;;;;;;;7.10;6.40;;;;;;;26.18;37.40;96850.25;4985379;28;20369;-62
2021/05/30 10:32:38;;;;;;;6.28;5.68;;;;;;;26.16;35.88;96810.19;4985854;28;20026;-59
2021/05/30 10:35:25;;;;;;;5.50;5.03;;;;;;;26.28;36.83;96860.31;4985840;28;20058;-59
2021/05/30 10:37:53;;;;;;;5.25;4.93;;;;;;;25.77;36.26;96717.53;4787697;28;5001266;-60
2021/05/30 10:40:21;;;;;;;5.88;5.43;;;;;;;26.29;34.05;96861.88;4958244;28;20518;-59
2021/05/30 10:43:09;;;;;;;5.60;5.20;;;;;;;26.14;35.43;96863.84;4966831;28;20034;-61
2021/05/30 10:45:44;;;;;;;5.47;5.07;;;;;;;24.64;36.34;96877.72;4963889;28;20042;-60
2021/05/30 10:48:15;;;;;;;5.40;5.00;;;;;;;24.96;36.32;96778.78;4965975;28;20042;-60
2021/05/30 10:51:02;;;;;;;5.70;5.35;;;;;;;25.38;36.74;96786.69;4964065;28;20027;-60
2021/05/30 10:53:28;;;;;;;5.43;5.03;;;;;;;25.99;36.42;96871.41;4965998;28;20050;-60
2021/05/30 10:56:12;;;;;;;5.43;4.93;;;;;;;24.12;37.14;96878.59;4964077;28;20042;-61
2021/05/30 10:58:37;;;;;;;;;;;;;;;23.30;39.33;96884.91;4966592;28;20062;-63
2021/05/30 11:01:02;;;;;;;5.90;5.50;;;;;;;22.56;39.14;96841.44;4964264;28;19957;-60
2021/05/30 11:03:28;;;;;;;7.05;6.38;;;;;;;22.81;37.45;96796.19;4964013;28;20047;-60
2021/05/30 11:05:56;;;;;;;4.82;4.53;;;;;;;22.66;39.20;96871.31;4948509;28;20142;-63
2021/05/30 11:08:34;;;;;;;4.80;4.40;;;;;;;22.74;40.12;96886.78;4946706;28;20043;-60
2021/05/30 11:11:11;;;;;;;5.45;4.95;;;;;;;23.99;37.40;96886.38;4946555;28;20035;-60
2021/05/30 11:14:12;;;;;;;9.13;7.97;;;;;;;23.97;37.00;96775.69;4946135;28;20045;-60
2021/05/30 11:16:43;;;;;;;6.95;5.63;;;;;;;25.00;35.55;96887.16;4944672;28;20051;-61
2021/05/30 11:19:11;;;;;;;6.78;6.28;;;;;;;24.22;35.93;96896.41;4944729;28;20035;-62
2021/05/30 11:21:43;;;;;;;4.60;4.20;;;;;;;23.95;36.83;96896.22;4942067;29;20455;-64
2021/05/30 11:24:11;;;;;;;6.03;5.40;;;;;;;24.52;37.55;96872.94;4943080;29;20047;-60
2021/05/30 11:26:37;;;;;;;5.22;4.63;;;;;;;25.45;35.09;96889.25;4942701;28;20042;-60
2021/05/30 11:29:04;;;;;;;5.40;5.00;;;;;;;25.13;36.48;96785.72;4946327;28;20122;-60
2021/05/30 11:31:31;;;;;;;6.25;5.65;;;;;;;26.00;37.90;96884.38;4944141;29;20031;-61
2021/05/30 11:34:06;;;;;;;5.63;5.32;;;;;;;25.98;38.16;96884.03;4946449;28;20050;-60